Green Ice — C6SO4 — position and weather

sailwx.info

Track history (hours):
 
Tides and Currents Weather Stations Pressure Air Temp Water Temp Dewpoint Dewpoint Depression Visibility Wind Speed Wind Dir Waves Ship Positions

Green Ice

Last reported at 2016-May-27 21:05 UTC. Time now 2016-May-27 22:03 UTC.
Position N 57°43' E 010°36'.

Length 86 m; draft 5.5 m.

Type: Ship. MMSI: 311411000.

Date/timePositionNaut miles runAvg speedWind from/ knotsBaromVisibWave heightAir tempDewpointWater temp
2016-May-27 21:05N 57°43' E 010°36'3 5.4
2016-May-27 20:26N 57°44' E 010°42'8 9.5
2016-May-27 19:33N 57°46' E 010°27'9513.2
2016-May-27 12:21N 57°51' E 007°29'1012.9
2016-May-27 11:33N 57°52' E 007°10'1212.4
2016-May-27 10:33N 57°53' E 006°47'1312.7
2016-May-27 09:33N 57°55' E 006°23'1514.9
2016-May-27 08:31N 57°58' E 005°54'2512.5
2016-May-27 06:33N 58°02' E 005°09'1312.7
2016-May-27 05:33N 58°03' E 004°45'1313.2
2016-May-27 04:33N 58°05' E 004°20'1313.3
2016-May-27 03:33N 58°07' E 003°55'1313.5
2016-May-27 02:33N 58°10' E 003°30'1313.3
2016-May-27 01:34N 58°12' E 003°05'1413.5
2016-May-27 00:34N 58°14' E 002°40'1413.7
2016-May-26 23:33N 58°17' E 002°14'1313.4
2016-May-26 22:33N 58°19' E 001°49'  
Track history (hours):
 
Tides and Currents Weather Stations Pressure Air Temp Water Temp Dewpoint Dewpoint Depression Visibility Wind Speed Wind Dir Waves Ship Positions

Green Ice

Last reported at 2016-May-27 21:05 UTC. Time now 2016-May-27 22:03 UTC.
Position N 57°43' E 010°36'.

Length 86 m; draft 5.5 m.

Type: Ship. MMSI: 311411000.

Date/timePositionNaut miles runAvg speedWind from/ knotsBaromVisibWave heightAir tempDewpointWater temp
2016-May-27 21:05N 57°43' E 010°36'3 5.4
2016-May-27 20:26N 57°44' E 010°42'8 9.5
2016-May-27 19:33N 57°46' E 010°27'9513.2
2016-May-27 12:21N 57°51' E 007°29'1012.9
2016-May-27 11:33N 57°52' E 007°10'1212.4
2016-May-27 10:33N 57°53' E 006°47'1312.7
2016-May-27 09:33N 57°55' E 006°23'1514.9
2016-May-27 08:31N 57°58' E 005°54'2512.5
2016-May-27 06:33N 58°02' E 005°09'1312.7
2016-May-27 05:33N 58°03' E 004°45'1313.2
2016-May-27 04:33N 58°05' E 004°20'1313.3
2016-May-27 03:33N 58°07' E 003°55'1313.5
2016-May-27 02:33N 58°10' E 003°30'1313.3
2016-May-27 01:34N 58°12' E 003°05'1413.5
2016-May-27 00:34N 58°14' E 002°40'1413.7
2016-May-26 23:33N 58°17' E 002°14'1313.4
2016-May-26 22:33N 58°19' E 001°49'  

Dump ship's entire track history